createdAt,value
2023-04-22T00:01:15.295Z,7.29
2023-04-22T00:04:00.997Z,7.21
2023-04-22T00:06:46.717Z,7.18
2023-04-22T00:09:32.308Z,6.47
2023-04-22T00:12:17.642Z,6.47
2023-04-22T00:15:03.071Z,7.14
2023-04-22T00:17:49.193Z,6.78
2023-04-22T00:20:36.429Z,6.20
2023-04-22T00:23:21.604Z,7.09
2023-04-22T00:26:07.005Z,6.40
2023-04-22T00:28:52.271Z,7.09
2023-04-22T00:31:37.807Z,6.26
2023-04-22T00:34:22.922Z,6.09
2023-04-22T00:37:08.469Z,5.79
2023-04-22T00:39:53.855Z,6.55
2023-04-22T00:42:39.421Z,6.94
2023-04-22T00:45:26.758Z,6.83
2023-04-22T00:48:13.757Z,5.41
2023-04-22T00:50:59.135Z,5.52
2023-04-22T00:53:44.434Z,6.81
2023-04-22T00:56:31.683Z,6.63
2023-04-22T00:59:17.277Z,5.30
2023-04-22T01:02:04.170Z,5.31
2023-04-22T01:04:49.700Z,5.88
2023-04-22T01:07:36.573Z,5.99
2023-04-22T01:10:22.332Z,5.55
2023-04-22T01:13:10.171Z,5.99
2023-04-22T01:15:55.839Z,6.19
2023-04-22T01:18:42.281Z,4.76
2023-04-22T01:21:28.033Z,5.66
2023-04-22T01:24:13.888Z,5.99
2023-04-22T01:26:59.372Z,4.47
2023-04-22T01:29:45.253Z,5.92
2023-04-22T01:32:31.158Z,5.93
2023-04-22T01:35:16.307Z,6.05
2023-04-22T01:38:01.709Z,5.16
2023-04-22T01:40:47.115Z,6.36
2023-04-22T01:43:32.996Z,6.03
2023-04-22T01:46:18.602Z,6.50
2023-04-22T01:49:03.887Z,6.01
2023-04-22T01:51:49.243Z,6.37
2023-04-22T01:54:35.499Z,6.20
2023-04-22T01:57:21.101Z,5.37
2023-04-22T02:00:08.392Z,6.01
2023-04-22T02:03:03.887Z,5.65
2023-04-22T02:05:49.289Z,6.92
2023-04-22T02:08:35.260Z,6.86
2023-04-22T02:11:21.329Z,5.59
2023-04-22T02:14:07.025Z,5.66
2023-04-22T02:16:52.794Z,6.68
2023-04-22T02:19:39.048Z,6.73
2023-04-22T02:22:24.887Z,6.90
2023-04-22T02:25:12.279Z,6.40
2023-04-22T02:27:58.011Z,6.35
2023-04-22T02:30:44.925Z,6.82
2023-04-22T02:33:30.444Z,6.79
2023-04-22T02:36:15.980Z,6.28
2023-04-22T02:39:03.591Z,6.83
2023-04-22T02:41:49.066Z,6.54
2023-04-22T02:44:34.640Z,6.44
2023-04-22T02:47:20.442Z,6.65
2023-04-22T02:50:07.835Z,5.20
2023-04-22T02:52:53.184Z,6.14
2023-04-22T02:55:41.966Z,6.44
2023-04-22T02:58:27.770Z,6.50
2023-04-22T03:01:13.186Z,5.47
2023-04-22T03:03:58.864Z,6.37
2023-04-22T03:06:45.024Z,6.52
2023-04-22T03:09:30.173Z,5.21
2023-04-22T03:12:15.624Z,6.31
2023-04-22T03:15:01.504Z,4.91
2023-04-22T03:17:49.617Z,6.23
2023-04-22T03:20:38.658Z,6.05
2023-04-22T03:23:24.343Z,5.62
2023-04-22T03:26:09.600Z,5.92
2023-04-22T03:28:55.710Z,5.43
2023-04-22T03:31:41.275Z,4.67
2023-04-22T03:34:27.191Z,5.84
2023-04-22T03:37:13.216Z,4.40
2023-04-22T03:39:58.604Z,5.64
2023-04-22T03:42:46.028Z,5.11
2023-04-22T03:45:32.484Z,5.15
2023-04-22T03:48:35.743Z,5.66
2023-04-22T03:51:26.360Z,5.80
2023-04-22T03:54:12.619Z,5.33
2023-04-22T03:57:04.747Z,5.80
2023-04-22T03:59:50.196Z,5.87
2023-04-22T04:02:36.070Z,5.53
2023-04-22T04:05:22.874Z,5.69
2023-04-22T04:08:08.452Z,5.76
2023-04-22T04:10:54.459Z,4.68
2023-04-22T04:13:40.096Z,5.26
2023-04-22T04:16:38.539Z,5.98
2023-04-22T04:19:30.583Z,6.10
2023-04-22T04:22:15.933Z,4.96
2023-04-22T04:25:10.409Z,6.31
2023-04-22T04:27:59.515Z,6.10
2023-04-22T04:30:45.820Z,6.23
2023-04-22T04:33:33.972Z,6.19
2023-04-22T04:36:20.106Z,6.95
2023-04-22T04:39:06.318Z,7.23
2023-04-22T04:41:55.323Z,7.31
2023-04-22T04:44:41.888Z,7.56
2023-04-22T04:47:28.482Z,7.54
2023-04-22T04:50:27.772Z,7.77
2023-04-22T04:53:16.554Z,8.27
2023-04-22T04:56:03.942Z,8.51
2023-04-22T04:58:49.941Z,8.71
2023-04-22T05:01:41.726Z,8.39
2023-04-22T05:04:30.885Z,9.01
2023-04-22T05:07:16.486Z,8.56
2023-04-22T05:10:04.181Z,9.64
2023-04-22T05:12:52.002Z,10.01
2023-04-22T05:15:41.685Z,10.47
2023-04-22T05:18:27.158Z,10.77
2023-04-22T05:21:13.636Z,11.19
2023-04-22T05:23:59.659Z,11.36
2023-04-22T05:26:45.062Z,11.88
2023-04-22T05:29:35.664Z,11.22
2023-04-22T05:32:22.689Z,12.37
2023-04-22T05:35:10.026Z,12.57
2023-04-22T05:37:55.970Z,12.75
2023-04-22T05:40:41.253Z,12.22
2023-04-22T05:43:29.210Z,12.66
2023-04-22T05:46:21.727Z,12.41
2023-04-22T05:49:07.909Z,13.42
2023-04-22T05:52:12.163Z,13.63
2023-04-22T05:55:17.917Z,12.92
2023-04-22T05:58:03.986Z,13.04
2023-04-22T06:01:08.041Z,14.05
2023-04-22T06:04:13.951Z,14.02
2023-04-22T06:06:59.932Z,12.87
2023-04-22T06:09:45.515Z,13.31
2023-04-22T06:12:34.558Z,13.78
2023-04-22T06:15:20.301Z,13.33
2023-04-22T06:18:06.816Z,13.39
2023-04-22T06:20:52.224Z,13.81
2023-04-22T06:23:37.683Z,13.93
2023-04-22T06:26:23.713Z,14.18
2023-04-22T06:29:09.243Z,14.24
2023-04-22T06:31:57.242Z,14.30
2023-04-22T06:34:43.089Z,13.61
2023-04-22T06:37:28.450Z,14.15
2023-04-22T06:40:15.798Z,13.77
2023-04-22T06:43:30.901Z,12.89
2023-04-22T06:46:28.414Z,13.53
2023-04-22T06:49:43.819Z,12.89
2023-04-22T06:52:54.418Z,13.81
2023-04-22T06:55:40.467Z,13.82
2023-04-22T06:58:25.765Z,13.88
2023-04-22T07:01:14.832Z,13.74
2023-04-22T07:04:01.591Z,13.88
2023-04-22T07:06:47.904Z,13.48
2023-04-22T07:09:34.238Z,14.01
2023-04-22T07:12:20.049Z,13.41
2023-04-22T07:15:05.985Z,14.07
2023-04-22T07:17:52.331Z,13.18
2023-04-22T07:20:38.221Z,14.27
2023-04-22T07:23:23.720Z,14.31
2023-04-22T07:26:09.060Z,14.21
2023-04-22T07:28:54.621Z,14.24
2023-04-22T07:31:40.194Z,14.66
2023-04-22T07:34:25.993Z,13.80
2023-04-22T07:37:11.519Z,14.84
2023-04-22T07:39:56.964Z,14.35
2023-04-22T07:42:42.415Z,14.96
2023-04-22T07:45:27.971Z,13.94
2023-04-22T07:48:13.233Z,14.05
2023-04-22T07:50:58.755Z,14.98
2023-04-22T07:53:44.657Z,14.99
2023-04-22T07:56:30.106Z,15.03
2023-04-22T07:59:16.029Z,15.08
2023-04-22T08:02:01.689Z,14.44
2023-04-22T08:04:47.257Z,15.09
2023-04-22T08:07:33.657Z,14.59
2023-04-22T08:10:19.824Z,14.26
2023-04-22T08:13:06.062Z,14.39
2023-04-22T08:15:51.620Z,14.86
2023-04-22T08:18:37.212Z,14.82
2023-04-22T08:21:23.132Z,15.15
2023-04-22T08:24:08.443Z,15.19
2023-04-22T08:26:53.734Z,15.19
2023-04-22T08:29:40.018Z,15.11
2023-04-22T08:32:26.678Z,15.08
2023-04-22T08:35:12.605Z,15.20
2023-04-22T08:37:58.188Z,14.26
2023-04-22T08:40:43.578Z,14.31
2023-04-22T08:43:29.338Z,14.94
2023-04-22T08:46:15.932Z,15.35
2023-04-22T08:49:04.255Z,15.47
2023-04-22T08:51:50.435Z,15.30
2023-04-22T08:54:37.521Z,15.21
2023-04-22T08:57:23.864Z,15.29
2023-04-22T09:00:10.079Z,15.82
2023-04-22T09:02:58.692Z,15.95
2023-04-22T09:05:45.628Z,14.99
2023-04-22T09:08:32.549Z,15.70
2023-04-22T09:11:18.311Z,15.26
2023-04-22T09:14:04.744Z,16.20
2023-04-22T09:16:50.664Z,16.39
2023-04-22T09:19:35.937Z,15.85
2023-04-22T09:22:21.328Z,16.69
2023-04-22T09:25:18.147Z,16.77
2023-04-22T09:28:03.524Z,16.81
2023-04-22T09:30:48.915Z,16.30
2023-04-22T09:33:38.856Z,16.85
2023-04-22T09:36:28.400Z,16.87
2023-04-22T09:39:14.457Z,15.66
2023-04-22T09:42:01.181Z,16.80
2023-04-22T09:44:54.031Z,16.72
2023-04-22T09:47:39.727Z,16.86
2023-04-22T09:50:27.046Z,15.46
2023-04-22T09:53:16.125Z,16.55
2023-04-22T09:56:04.605Z,16.81
2023-04-22T09:58:53.000Z,16.30
2023-04-22T10:01:41.417Z,16.80
2023-04-22T10:04:27.320Z,16.11
2023-04-22T10:07:14.392Z,15.77
2023-04-22T10:10:00.194Z,16.71
2023-04-22T10:12:47.998Z,16.13
2023-04-22T10:15:36.517Z,15.57
2023-04-22T10:18:27.438Z,16.16
2023-04-22T10:21:13.038Z,15.53
2023-04-22T10:24:00.055Z,16.42
2023-04-22T10:26:51.435Z,16.47
2023-04-22T10:29:40.038Z,15.80
2023-04-22T10:32:27.808Z,16.51
2023-04-22T10:35:15.013Z,16.59
2023-04-22T10:38:00.480Z,16.76
2023-04-22T10:41:01.730Z,16.73
2023-04-22T10:43:49.633Z,16.73
2023-04-22T10:46:37.567Z,15.75
2023-04-22T10:49:25.535Z,16.62
2023-04-22T10:52:28.142Z,16.64
2023-04-22T10:55:13.653Z,16.23
2023-04-22T10:57:59.678Z,16.80
2023-04-22T11:00:53.109Z,15.72
2023-04-22T11:03:40.168Z,15.72
2023-04-22T11:06:28.064Z,16.56
2023-04-22T11:09:13.469Z,16.57
2023-04-22T11:12:36.122Z,16.94
2023-04-22T11:15:24.889Z,16.97
2023-04-22T11:18:14.413Z,15.66
2023-04-22T11:21:06.356Z,16.13
2023-04-22T11:23:53.199Z,16.84
2023-04-22T11:26:40.952Z,17.21
2023-04-22T11:29:26.459Z,17.04
2023-04-22T11:32:15.748Z,17.08
2023-04-22T11:35:06.880Z,17.33
2023-04-22T11:37:56.038Z,17.41
2023-04-22T11:40:46.041Z,17.32
2023-04-22T11:43:32.492Z,17.05
2023-04-22T11:46:29.159Z,16.58
2023-04-22T11:49:16.179Z,17.54
2023-04-22T11:52:01.829Z,17.58
2023-04-22T11:54:47.312Z,17.15
2023-04-22T11:57:36.275Z,17.72
2023-04-22T12:00:23.909Z,16.61
2023-04-22T12:03:20.372Z,16.93
2023-04-22T12:06:06.797Z,17.51
2023-04-22T12:08:52.236Z,17.72
2023-04-22T12:11:38.960Z,17.81
2023-04-22T12:14:35.071Z,16.77
2023-04-22T12:17:25.515Z,17.78
2023-04-22T12:20:14.122Z,17.50
2023-04-22T12:22:59.610Z,17.81
2023-04-22T12:25:47.239Z,17.78
2023-04-22T12:28:34.817Z,17.89
2023-04-22T12:31:21.612Z,17.91
2023-04-22T12:34:09.012Z,17.40
2023-04-22T12:36:56.273Z,17.64
2023-04-22T12:39:42.209Z,16.86
2023-04-22T12:42:27.993Z,17.36
2023-04-22T12:45:13.410Z,17.55
2023-04-22T12:47:58.872Z,16.69
2023-04-22T12:50:44.426Z,17.74
2023-04-22T12:53:30.333Z,16.54
2023-04-22T12:56:15.782Z,17.68
2023-04-22T12:59:03.332Z,17.65
2023-04-22T13:01:49.082Z,16.60
2023-04-22T13:04:34.505Z,16.80
2023-04-22T13:07:20.001Z,16.33
2023-04-22T13:10:07.154Z,17.64
2023-04-22T13:12:52.692Z,17.51
2023-04-22T13:15:39.173Z,17.67
2023-04-22T13:18:24.867Z,17.44
2023-04-22T13:21:13.669Z,17.41
2023-04-22T13:23:59.109Z,16.81
2023-04-22T13:26:45.836Z,17.78
2023-04-22T13:29:32.402Z,17.46
2023-04-22T13:32:17.973Z,17.63
2023-04-22T13:35:03.543Z,17.64
2023-04-22T13:37:49.182Z,18.03
2023-04-22T13:40:35.058Z,16.88
2023-04-22T13:43:21.019Z,17.17
2023-04-22T13:46:06.981Z,17.73
2023-04-22T13:48:52.218Z,17.26
2023-04-22T13:51:37.711Z,17.91
2023-04-22T13:54:23.599Z,17.89
2023-04-22T13:57:12.403Z,17.83
2023-04-22T13:59:57.708Z,17.81
2023-04-22T14:02:44.650Z,17.49
2023-04-22T14:05:29.951Z,17.70
2023-04-22T14:08:15.413Z,16.80
2023-04-22T14:11:03.372Z,17.79
2023-04-22T14:13:49.698Z,17.82
2023-04-22T14:16:35.847Z,17.86
2023-04-22T14:19:23.450Z,17.60
2023-04-22T14:22:08.913Z,16.92
2023-04-22T14:24:54.827Z,17.86
2023-04-22T14:27:41.496Z,17.84
2023-04-22T14:30:27.013Z,16.84
2023-04-22T14:33:12.866Z,17.17
2023-04-22T14:35:58.977Z,17.81
2023-04-22T14:38:44.503Z,17.39
2023-04-22T14:41:30.456Z,17.77
2023-04-22T14:44:16.090Z,17.79
2023-04-22T14:47:01.810Z,17.78
2023-04-22T14:49:47.248Z,17.76
2023-04-22T14:52:33.285Z,17.02
2023-04-22T14:55:23.793Z,16.87
2023-04-22T14:58:10.114Z,16.79
2023-04-22T15:00:56.624Z,17.77
2023-04-22T15:03:43.772Z,17.72
2023-04-22T15:06:43.167Z,17.61
2023-04-22T15:09:40.364Z,17.57
2023-04-22T15:12:29.964Z,17.50
2023-04-22T15:15:18.264Z,16.73
2023-04-22T15:18:05.637Z,17.36
2023-04-22T15:20:51.364Z,16.50
2023-04-22T15:23:36.783Z,17.14
2023-04-22T15:26:22.145Z,16.91
2023-04-22T15:29:36.457Z,17.14
2023-04-22T15:32:23.762Z,16.91
2023-04-22T15:35:10.079Z,16.12
2023-04-22T15:37:58.246Z,15.89
2023-04-22T15:40:44.287Z,17.05
2023-04-22T15:43:30.813Z,16.62
2023-04-22T15:46:16.727Z,16.54
2023-04-22T15:49:03.278Z,16.76
2023-04-22T15:51:49.419Z,16.65
2023-04-22T15:54:35.173Z,16.02
2023-04-22T15:57:20.984Z,17.10
2023-04-22T16:00:13.416Z,16.97
2023-04-22T16:03:02.346Z,16.90
2023-04-22T16:05:47.826Z,17.11
2023-04-22T16:08:33.186Z,16.11
2023-04-22T16:11:19.107Z,17.08
2023-04-22T16:14:04.830Z,16.88
2023-04-22T16:17:03.748Z,17.18
2023-04-22T16:19:52.457Z,17.17
2023-04-22T16:22:38.258Z,16.95
2023-04-22T16:25:24.209Z,17.15
2023-04-22T16:28:11.560Z,15.97
2023-04-22T16:30:57.291Z,16.96
2023-04-22T16:33:43.103Z,17.17
2023-04-22T16:36:29.169Z,17.02
2023-04-22T16:39:14.611Z,17.19
2023-04-22T16:42:00.151Z,16.70
2023-04-22T16:44:45.523Z,17.22
2023-04-22T16:47:30.925Z,16.16
2023-04-22T16:50:17.288Z,17.23
2023-04-22T16:53:02.892Z,17.19
2023-04-22T16:55:48.031Z,16.95
2023-04-22T16:58:33.458Z,17.11
2023-04-22T17:01:18.887Z,16.84
2023-04-22T17:04:04.823Z,16.53
2023-04-22T17:06:50.063Z,16.71
2023-04-22T17:09:35.551Z,16.94
2023-04-22T17:12:21.197Z,15.75
2023-04-22T17:15:07.647Z,16.67
2023-04-22T17:17:53.242Z,16.75
2023-04-22T17:20:40.003Z,16.78
2023-04-22T17:23:27.301Z,15.59
2023-04-22T17:26:12.711Z,16.40
2023-04-22T17:28:58.212Z,16.60
2023-04-22T17:31:43.638Z,15.61
2023-04-22T17:34:28.807Z,16.36
2023-04-22T17:37:14.195Z,16.11
2023-04-22T17:39:59.630Z,15.25
2023-04-22T17:42:46.488Z,15.48
2023-04-22T17:45:32.125Z,16.02
2023-04-22T17:48:17.782Z,14.52
2023-04-22T17:51:06.592Z,15.69
2023-04-22T17:53:53.044Z,15.65
2023-04-22T17:56:38.463Z,14.52
2023-04-22T17:59:24.339Z,15.23
2023-04-22T18:02:12.130Z,15.53
2023-04-22T18:04:58.291Z,14.63
2023-04-22T18:07:43.943Z,14.23
2023-04-22T18:10:30.126Z,14.39
2023-04-22T18:13:16.140Z,15.09
2023-04-22T18:16:02.076Z,15.21
2023-04-22T18:18:47.317Z,15.13
2023-04-22T18:21:34.264Z,13.95
2023-04-22T18:24:19.812Z,14.48
2023-04-22T18:27:05.637Z,13.99
2023-04-22T18:29:51.609Z,14.43
2023-04-22T18:32:38.004Z,14.20
2023-04-22T18:35:23.729Z,14.25
2023-04-22T18:38:09.052Z,14.06
2023-04-22T18:40:55.306Z,13.95
2023-04-22T18:43:41.617Z,12.74
2023-04-22T18:46:27.033Z,12.80
2023-04-22T18:49:12.381Z,12.43
2023-04-22T18:51:57.808Z,13.08
2023-04-22T18:54:43.542Z,12.52
2023-04-22T18:57:29.472Z,12.94
2023-04-22T19:00:16.831Z,12.66
2023-04-22T19:03:05.156Z,12.66
2023-04-22T19:05:51.309Z,12.43
2023-04-22T19:08:36.817Z,12.31
2023-04-22T19:11:23.103Z,10.96
2023-04-22T19:14:11.343Z,11.95
2023-04-22T19:16:59.132Z,11.98
2023-04-22T19:19:45.567Z,11.97
2023-04-22T19:22:31.273Z,12.15
2023-04-22T19:25:18.795Z,11.59
2023-04-22T19:28:04.765Z,11.30
2023-04-22T19:30:51.724Z,12.53
2023-04-22T19:33:37.288Z,12.58
2023-04-22T19:36:23.086Z,12.49
2023-04-22T19:39:08.864Z,12.48
2023-04-22T19:41:54.252Z,11.30
2023-04-22T19:44:42.873Z,12.49
2023-04-22T19:47:28.673Z,12.34
2023-04-22T19:50:14.499Z,11.24
2023-04-22T19:53:04.639Z,12.40
2023-04-22T19:55:50.498Z,12.09
2023-04-22T19:58:36.383Z,11.80
2023-04-22T20:01:22.682Z,11.20
2023-04-22T20:04:08.879Z,12.00
2023-04-22T20:06:55.094Z,11.93
2023-04-22T20:09:42.045Z,11.78
2023-04-22T20:12:30.892Z,11.63
2023-04-22T20:15:17.077Z,11.65
2023-04-22T20:18:02.566Z,11.84
2023-04-22T20:20:49.436Z,11.71
2023-04-22T20:23:35.556Z,11.83
2023-04-22T20:26:21.020Z,10.82
2023-04-22T20:29:07.985Z,10.76
2023-04-22T20:31:55.660Z,11.45
2023-04-22T20:34:41.849Z,10.95
2023-04-22T20:37:28.700Z,11.24
2023-04-22T20:40:15.077Z,11.36
2023-04-22T20:43:00.447Z,10.33
2023-04-22T20:45:46.041Z,11.47
2023-04-22T20:48:31.286Z,11.08
2023-04-22T20:51:16.767Z,11.10
2023-04-22T20:54:02.184Z,11.00
2023-04-22T20:56:47.663Z,10.98
2023-04-22T20:59:33.794Z,10.36
2023-04-22T21:02:20.328Z,10.86
2023-04-22T21:05:06.823Z,10.77
2023-04-22T21:07:52.695Z,10.72
2023-04-22T21:10:38.606Z,9.51
2023-04-22T21:13:24.547Z,10.61
2023-04-22T21:16:11.271Z,9.43
2023-04-22T21:19:01.068Z,10.54
2023-04-22T21:21:47.614Z,9.85
2023-04-22T21:24:35.059Z,10.23
2023-04-22T21:27:22.204Z,9.01
2023-04-22T21:30:08.866Z,9.88
2023-04-22T21:32:54.408Z,10.00
2023-04-22T21:35:39.832Z,9.90
2023-04-22T21:38:25.558Z,9.63
2023-04-22T21:41:11.455Z,9.66
2023-04-22T21:43:56.903Z,9.65
2023-04-22T21:46:42.403Z,9.21
2023-04-22T21:49:27.818Z,9.40
2023-04-22T21:52:13.367Z,9.32
2023-04-22T21:54:58.648Z,8.30
2023-04-22T21:57:44.294Z,8.10
2023-04-22T22:00:30.773Z,7.82
2023-04-22T22:03:16.151Z,9.08
2023-04-22T22:06:01.655Z,8.99
2023-04-22T22:08:47.491Z,8.46
2023-04-22T22:11:33.349Z,8.79
2023-04-22T22:14:19.240Z,8.99
2023-04-22T22:17:08.331Z,8.94
2023-04-22T22:19:56.018Z,8.43
2023-04-22T22:22:42.852Z,8.57
2023-04-22T22:25:28.399Z,8.58
2023-04-22T22:28:13.796Z,8.77
2023-04-22T22:31:02.369Z,8.22
2023-04-22T22:33:47.648Z,8.70
2023-04-22T22:36:33.019Z,8.69
2023-04-22T22:39:18.542Z,8.70
2023-04-22T22:42:04.023Z,8.67
2023-04-22T22:44:49.418Z,7.81
2023-04-22T22:47:35.522Z,8.38
2023-04-22T22:50:21.394Z,7.67
2023-04-22T22:53:06.863Z,8.33
2023-04-22T22:55:52.007Z,8.32
2023-04-22T22:58:37.946Z,8.43
2023-04-22T23:01:23.474Z,8.08
2023-04-22T23:04:09.077Z,7.49
2023-04-22T23:06:55.392Z,7.69
2023-04-22T23:09:40.952Z,8.56
2023-04-22T23:12:26.437Z,7.19
2023-04-22T23:15:11.902Z,8.33
2023-04-22T23:17:57.399Z,7.29
2023-04-22T23:20:43.937Z,7.40
2023-04-22T23:23:30.721Z,8.18
2023-04-22T23:26:16.435Z,7.61
2023-04-22T23:29:02.385Z,7.62
2023-04-22T23:31:50.866Z,7.03
2023-04-22T23:34:40.973Z,6.87
2023-04-22T23:37:28.476Z,6.81
2023-04-22T23:40:13.912Z,8.09
2023-04-22T23:42:59.171Z,8.04
2023-04-22T23:45:45.250Z,7.63
2023-04-22T23:48:30.803Z,7.60
2023-04-22T23:51:16.827Z,7.06
2023-04-22T23:54:02.306Z,7.49
2023-04-22T23:56:47.976Z,7.37
2023-04-22T23:59:33.923Z,7.46
